createdAt,value
2023-05-03T00:00:08.473Z,6.19
2023-05-03T00:02:39.188Z,6.15
2023-05-03T00:05:09.979Z,6.25
2023-05-03T00:07:36.921Z,6.21
2023-05-03T00:10:04.388Z,6.20
2023-05-03T00:12:31.220Z,6.19
2023-05-03T00:14:57.820Z,6.16
2023-05-03T00:17:24.434Z,6.06
2023-05-03T00:19:51.161Z,5.95
2023-05-03T00:22:17.886Z,5.96
2023-05-03T00:24:44.559Z,6.01
2023-05-03T00:27:11.114Z,5.91
2023-05-03T00:29:37.710Z,5.72
2023-05-03T00:32:04.785Z,5.60
2023-05-03T00:34:31.466Z,5.69
2023-05-03T00:37:00.958Z,5.80
2023-05-03T00:39:31.266Z,5.75
2023-05-03T00:41:58.996Z,5.74
2023-05-03T00:44:25.626Z,5.79
2023-05-03T00:46:52.410Z,5.75
2023-05-03T00:49:19.854Z,5.70
2023-05-03T00:51:46.757Z,5.70
2023-05-03T00:54:13.801Z,5.63
2023-05-03T00:56:51.057Z,5.61
2023-05-03T00:59:18.889Z,5.48
2023-05-03T01:01:50.135Z,5.46
2023-05-03T01:04:21.056Z,5.29
2023-05-03T01:07:07.234Z,5.31
2023-05-03T01:09:53.584Z,5.36
2023-05-03T01:12:58.119Z,5.38
2023-05-03T01:15:36.825Z,5.36
2023-05-03T01:18:12.343Z,5.32
2023-05-03T01:20:43.628Z,5.21
2023-05-03T01:23:18.745Z,5.28
2023-05-03T01:25:45.397Z,5.28
2023-05-03T01:28:12.043Z,5.29
2023-05-03T01:30:40.539Z,5.14
2023-05-03T01:33:16.810Z,5.11
2023-05-03T01:36:00.207Z,5.07
2023-05-03T01:38:33.654Z,5.10
2023-05-03T01:41:02.697Z,5.04
2023-05-03T01:43:34.209Z,5.09
2023-05-03T01:46:00.811Z,5.12
2023-05-03T01:48:27.501Z,5.11
2023-05-03T01:50:54.047Z,5.08
2023-05-03T01:53:20.751Z,5.00
2023-05-03T01:55:47.286Z,4.91
2023-05-03T01:58:13.917Z,4.89
2023-05-03T02:00:40.823Z,4.95
2023-05-03T02:03:09.215Z,4.81
2023-05-03T02:05:37.101Z,4.79
2023-05-03T02:08:03.965Z,4.79
2023-05-03T02:10:30.594Z,4.66
2023-05-03T02:13:00.506Z,4.62
2023-05-03T02:15:27.399Z,4.56
2023-05-03T02:17:54.302Z,4.65
2023-05-03T02:20:21.168Z,4.64
2023-05-03T02:22:47.782Z,4.59
2023-05-03T02:25:14.350Z,4.60
2023-05-03T02:27:41.296Z,4.67
2023-05-03T02:30:08.890Z,4.69
2023-05-03T02:32:41.112Z,4.65
2023-05-03T02:35:10.462Z,4.47
2023-05-03T02:37:37.352Z,4.41
2023-05-03T02:40:10.031Z,4.40
2023-05-03T02:42:41.257Z,4.36
2023-05-03T02:45:08.558Z,4.34
2023-05-03T02:47:35.358Z,4.30
2023-05-03T02:50:02.188Z,4.28
2023-05-03T02:52:31.340Z,4.20
2023-05-03T02:54:57.936Z,4.30
2023-05-03T02:57:25.169Z,4.29
2023-05-03T02:59:54.600Z,4.16
2023-05-03T03:02:22.137Z,4.10
2023-05-03T03:04:48.838Z,4.16
2023-05-03T03:07:15.489Z,4.08
2023-05-03T03:09:42.230Z,4.01
2023-05-03T03:12:08.973Z,4.02
2023-05-03T03:14:37.026Z,3.99
2023-05-03T03:17:08.877Z,4.04
2023-05-03T03:19:35.715Z,4.05
2023-05-03T03:22:02.335Z,4.13
2023-05-03T03:24:30.317Z,4.07
2023-05-03T03:26:58.295Z,3.98
2023-05-03T03:29:25.869Z,3.88
2023-05-03T03:31:52.612Z,3.87
2023-05-03T03:34:19.219Z,3.83
2023-05-03T03:36:45.825Z,3.70
2023-05-03T03:39:12.394Z,3.69
2023-05-03T03:41:42.399Z,3.76
2023-05-03T03:44:08.957Z,3.77
2023-05-03T03:46:35.612Z,3.77
2023-05-03T03:49:02.539Z,3.83
2023-05-03T03:51:31.220Z,3.67
2023-05-03T03:53:59.008Z,3.57
2023-05-03T03:56:29.524Z,3.48
2023-05-03T03:58:56.770Z,3.56
2023-05-03T04:01:24.315Z,3.58
2023-05-03T04:03:51.014Z,3.69
2023-05-03T04:06:18.307Z,3.65
2023-05-03T04:08:46.735Z,3.63
2023-05-03T04:11:14.986Z,3.63
2023-05-03T04:13:52.680Z,3.57
2023-05-03T04:16:19.283Z,3.49
2023-05-03T04:18:46.363Z,3.44
2023-05-03T04:21:13.778Z,3.54
2023-05-03T04:23:41.819Z,3.57
2023-05-03T04:26:20.189Z,3.65
2023-05-03T04:28:58.184Z,3.63
2023-05-03T04:31:25.664Z,3.62
2023-05-03T04:33:54.301Z,3.57
2023-05-03T04:36:25.499Z,3.61
2023-05-03T04:38:56.252Z,3.64
2023-05-03T04:41:24.488Z,3.71
2023-05-03T04:43:52.215Z,3.84
2023-05-03T04:46:19.067Z,3.89
2023-05-03T04:48:46.534Z,4.01
2023-05-03T04:51:13.507Z,3.99
2023-05-03T04:53:41.625Z,4.06
2023-05-03T04:56:13.531Z,4.19
2023-05-03T04:58:41.373Z,4.28
2023-05-03T05:01:10.747Z,4.23
2023-05-03T05:03:37.655Z,4.09
2023-05-03T05:06:12.254Z,4.31
2023-05-03T05:08:40.448Z,4.41
2023-05-03T05:11:10.717Z,4.65
2023-05-03T05:13:37.484Z,4.82
2023-05-03T05:16:04.429Z,4.93
2023-05-03T05:18:31.843Z,4.98
2023-05-03T05:21:01.782Z,5.11
2023-05-03T05:23:29.224Z,5.19
2023-05-03T05:26:00.427Z,5.31
2023-05-03T05:28:30.169Z,5.47
2023-05-03T05:30:56.942Z,5.65
2023-05-03T05:33:24.396Z,5.75
2023-05-03T05:35:51.201Z,5.90
2023-05-03T05:38:20.960Z,5.95
2023-05-03T05:40:49.354Z,6.06
2023-05-03T05:43:16.536Z,6.17
2023-05-03T05:45:45.934Z,6.24
2023-05-03T05:48:14.483Z,6.19
2023-05-03T05:50:42.788Z,6.34
2023-05-03T05:53:11.773Z,6.53
2023-05-03T05:55:43.012Z,6.67
2023-05-03T05:58:12.864Z,6.78
2023-05-03T06:00:49.074Z,6.94
2023-05-03T06:03:16.893Z,7.08
2023-05-03T06:05:43.681Z,7.09
2023-05-03T06:08:10.711Z,7.12
2023-05-03T06:10:38.257Z,7.19
2023-05-03T06:13:04.799Z,7.23
2023-05-03T06:15:32.838Z,7.32
2023-05-03T06:17:59.595Z,7.34
2023-05-03T06:20:26.369Z,7.54
2023-05-03T06:22:53.925Z,7.60
2023-05-03T06:25:20.873Z,7.49
2023-05-03T06:27:49.332Z,7.62
2023-05-03T06:30:18.291Z,7.42
2023-05-03T06:32:48.000Z,7.58
2023-05-03T06:35:15.682Z,7.52
2023-05-03T06:37:43.739Z,7.80
2023-05-03T06:40:10.703Z,7.76
2023-05-03T06:42:37.491Z,7.85
2023-05-03T06:45:19.614Z,7.78
2023-05-03T06:47:46.337Z,7.86
2023-05-03T06:50:13.894Z,8.05
2023-05-03T06:52:41.313Z,8.22
2023-05-03T06:55:08.469Z,8.18
2023-05-03T06:57:35.038Z,8.28
2023-05-03T07:00:01.722Z,8.28
2023-05-03T07:02:28.964Z,8.38
2023-05-03T07:04:55.847Z,8.47
2023-05-03T07:07:22.561Z,8.56
2023-05-03T07:09:50.594Z,8.36
2023-05-03T07:12:17.355Z,8.55
2023-05-03T07:14:43.925Z,8.78
2023-05-03T07:17:10.652Z,8.94
2023-05-03T07:19:39.651Z,9.15
2023-05-03T07:22:06.295Z,9.19
2023-05-03T07:24:32.856Z,8.96
2023-05-03T07:26:59.439Z,9.23
2023-05-03T07:29:27.278Z,9.40
2023-05-03T07:31:54.064Z,9.68
2023-05-03T07:34:21.364Z,9.30
2023-05-03T07:36:48.000Z,9.27
2023-05-03T07:39:14.535Z,9.46
2023-05-03T07:41:41.103Z,9.66
2023-05-03T07:44:07.837Z,9.77
2023-05-03T07:46:35.363Z,9.77
2023-05-03T07:49:06.228Z,9.70
2023-05-03T07:51:36.764Z,9.86
2023-05-03T07:54:04.248Z,9.60
2023-05-03T07:56:31.452Z,9.70
2023-05-03T07:59:08.542Z,9.74
2023-05-03T08:01:36.593Z,9.88
2023-05-03T08:04:03.487Z,10.00
2023-05-03T08:06:31.751Z,9.96
2023-05-03T08:08:58.619Z,9.80
2023-05-03T08:11:27.656Z,10.17
2023-05-03T08:13:54.277Z,10.15
2023-05-03T08:16:21.453Z,10.11
2023-05-03T08:18:48.181Z,10.14
2023-05-03T08:21:15.099Z,10.06
2023-05-03T08:23:43.142Z,10.40
2023-05-03T08:26:10.954Z,10.84
2023-05-03T08:28:38.007Z,11.04
2023-05-03T08:31:05.088Z,11.12
2023-05-03T08:33:31.842Z,11.11
2023-05-03T08:35:58.384Z,10.98
2023-05-03T08:38:30.048Z,11.21
2023-05-03T08:40:59.619Z,11.15
2023-05-03T08:43:28.605Z,11.23
2023-05-03T08:45:57.250Z,11.33
2023-05-03T08:48:24.009Z,11.30
2023-05-03T08:50:52.051Z,11.01
2023-05-03T08:53:18.726Z,11.12
2023-05-03T08:55:45.447Z,11.07
2023-05-03T08:58:13.109Z,11.03
2023-05-03T09:00:44.580Z,11.24
2023-05-03T09:03:11.817Z,11.72
2023-05-03T09:05:44.138Z,11.89
2023-05-03T09:08:13.468Z,11.76
2023-05-03T09:10:42.266Z,11.62
2023-05-03T09:13:12.075Z,11.77
2023-05-03T09:15:38.917Z,12.15
2023-05-03T09:18:08.521Z,12.16
2023-05-03T09:20:36.777Z,12.35
2023-05-03T09:23:03.605Z,12.48
2023-05-03T09:25:49.726Z,12.46
2023-05-03T09:28:17.413Z,12.23
2023-05-03T09:30:45.011Z,12.20
2023-05-03T09:33:12.095Z,11.86
2023-05-03T09:35:39.138Z,11.79
2023-05-03T09:38:06.228Z,11.82
2023-05-03T09:40:33.081Z,11.95
2023-05-03T09:43:09.723Z,11.95
2023-05-03T09:45:37.873Z,12.00
2023-05-03T09:48:06.753Z,11.90
2023-05-03T09:50:34.604Z,12.25
2023-05-03T09:53:05.936Z,12.43
2023-05-03T09:55:37.167Z,12.45
2023-05-03T09:58:08.421Z,12.50
2023-05-03T10:00:39.094Z,12.84
2023-05-03T10:03:11.308Z,12.65
2023-05-03T10:05:46.087Z,12.89
2023-05-03T10:08:37.971Z,13.03
2023-05-03T10:11:08.123Z,13.37
2023-05-03T10:13:36.155Z,12.66
2023-05-03T10:16:08.372Z,12.96
2023-05-03T10:18:40.904Z,13.42
2023-05-03T10:21:21.757Z,13.08
2023-05-03T10:24:14.021Z,13.20
2023-05-03T10:26:42.110Z,13.83
2023-05-03T10:29:31.622Z,13.89
2023-05-03T10:31:58.105Z,14.16
2023-05-03T10:34:25.807Z,14.14
2023-05-03T10:36:56.895Z,14.60
2023-05-03T10:39:23.509Z,14.84
2023-05-03T10:41:59.840Z,14.52
2023-05-03T10:44:28.000Z,14.64
2023-05-03T10:46:55.026Z,14.90
2023-05-03T10:49:23.594Z,14.93
2023-05-03T10:51:50.310Z,15.38
2023-05-03T10:54:17.701Z,14.73
2023-05-03T10:56:52.655Z,14.70
2023-05-03T10:59:20.230Z,15.02
2023-05-03T11:01:51.204Z,15.09
2023-05-03T11:04:36.016Z,14.93
2023-05-03T11:07:07.334Z,15.30
2023-05-03T11:09:34.529Z,15.48
2023-05-03T11:12:06.070Z,14.24
2023-05-03T11:14:32.740Z,14.17
2023-05-03T11:16:59.502Z,14.40
2023-05-03T11:19:26.852Z,14.76
2023-05-03T11:21:53.755Z,14.80
2023-05-03T11:24:20.408Z,14.60
2023-05-03T11:26:47.338Z,14.87
2023-05-03T11:29:17.113Z,15.23
2023-05-03T11:31:44.169Z,15.31
2023-05-03T11:34:12.380Z,15.79
2023-05-03T11:36:40.845Z,16.15
2023-05-03T11:39:08.153Z,16.21
2023-05-03T11:41:35.814Z,16.50
2023-05-03T11:44:14.971Z,17.00
2023-05-03T11:46:43.724Z,16.31
2023-05-03T11:49:10.468Z,15.70
2023-05-03T11:51:37.403Z,15.85
2023-05-03T11:54:13.590Z,16.03
2023-05-03T11:56:52.814Z,16.23
2023-05-03T11:59:20.082Z,15.82
2023-05-03T12:01:49.349Z,16.21
2023-05-03T12:04:16.942Z,16.11
2023-05-03T12:06:52.067Z,15.98
2023-05-03T12:09:22.073Z,15.83
2023-05-03T12:11:51.999Z,16.31
2023-05-03T12:14:19.912Z,16.28
2023-05-03T12:16:50.797Z,15.77
2023-05-03T12:19:25.815Z,16.06
2023-05-03T12:22:07.924Z,15.47
2023-05-03T12:24:39.666Z,15.41
2023-05-03T12:27:08.604Z,15.75
2023-05-03T12:29:35.885Z,15.90
2023-05-03T12:32:03.840Z,15.38
2023-05-03T12:34:36.911Z,16.29
2023-05-03T12:37:06.697Z,17.32
2023-05-03T12:39:34.503Z,17.55
2023-05-03T12:42:08.060Z,16.38
2023-05-03T12:44:35.468Z,16.76
2023-05-03T12:47:04.037Z,16.96
2023-05-03T12:49:31.706Z,15.92
2023-05-03T12:54:33.372Z,15.35
2023-05-03T12:57:08.329Z,16.23
2023-05-03T12:59:41.662Z,15.68
2023-05-03T13:04:57.781Z,16.15
2023-05-03T13:07:29.617Z,15.86
2023-05-03T13:12:30.800Z,16.37
2023-05-03T13:14:58.160Z,17.05
2023-05-03T13:17:25.073Z,17.06
2023-05-03T13:19:52.486Z,17.25
2023-05-03T13:22:19.313Z,16.58
2023-05-03T13:24:47.379Z,16.66
2023-05-03T13:27:14.524Z,17.22
2023-05-03T13:29:41.589Z,16.86
2023-05-03T13:32:09.419Z,16.50
2023-05-03T13:34:36.432Z,15.85
2023-05-03T13:37:04.609Z,16.06
2023-05-03T13:39:32.146Z,16.12
2023-05-03T13:41:58.903Z,16.65
2023-05-03T13:44:26.153Z,17.25
2023-05-03T13:46:53.031Z,17.84
2023-05-03T13:49:19.920Z,17.48
2023-05-03T13:51:46.744Z,16.31
2023-05-03T13:54:13.518Z,16.66
2023-05-03T13:59:21.056Z,16.97
2023-05-03T14:01:48.176Z,16.80
2023-05-03T14:04:14.853Z,15.97
2023-05-03T14:06:42.033Z,16.51
2023-05-03T14:09:09.711Z,17.22
2023-05-03T14:11:36.392Z,17.04
2023-05-03T14:14:03.366Z,16.95
2023-05-03T14:16:40.832Z,17.16
2023-05-03T14:19:12.455Z,17.22
2023-05-03T14:21:45.264Z,17.32
2023-05-03T14:24:12.510Z,17.66
2023-05-03T14:26:39.194Z,17.42
2023-05-03T14:29:06.113Z,16.53
2023-05-03T14:31:34.127Z,17.13
2023-05-03T14:34:01.120Z,17.67
2023-05-03T14:36:35.843Z,17.37
2023-05-03T14:39:04.123Z,16.67
2023-05-03T14:41:32.188Z,17.03
2023-05-03T14:43:58.867Z,17.26
2023-05-03T14:46:25.648Z,17.00
2023-05-03T14:48:52.352Z,16.78
2023-05-03T14:51:19.079Z,16.96
2023-05-03T14:53:45.710Z,16.91
2023-05-03T14:56:12.357Z,16.99
2023-05-03T14:58:38.889Z,17.09
2023-05-03T15:01:05.509Z,16.91
2023-05-03T15:03:32.458Z,16.91
2023-05-03T15:06:00.251Z,17.10
2023-05-03T15:08:27.573Z,17.23
2023-05-03T15:10:54.144Z,17.05
2023-05-03T15:13:20.953Z,17.24
2023-05-03T15:15:48.066Z,16.92
2023-05-03T15:18:15.653Z,16.97
2023-05-03T15:20:42.281Z,17.03
2023-05-03T15:23:09.017Z,16.96
2023-05-03T15:25:35.702Z,17.05
2023-05-03T15:28:04.220Z,16.69
2023-05-03T15:30:32.845Z,17.02
2023-05-03T15:33:01.035Z,16.65
2023-05-03T15:35:28.010Z,16.43
2023-05-03T15:37:54.751Z,16.45
2023-05-03T15:40:23.723Z,16.07
2023-05-03T15:42:51.969Z,16.47
2023-05-03T15:45:18.916Z,17.06
2023-05-03T15:47:46.247Z,16.54
2023-05-03T15:50:13.297Z,16.58
2023-05-03T15:52:39.950Z,16.38
2023-05-03T15:55:08.993Z,16.43
2023-05-03T15:57:35.740Z,16.42
2023-05-03T16:00:06.353Z,16.31
2023-05-03T16:02:33.989Z,16.84
2023-05-03T16:05:00.738Z,17.03
2023-05-03T16:07:27.345Z,17.19
2023-05-03T16:09:53.955Z,17.06
2023-05-03T16:12:20.540Z,16.84
2023-05-03T16:14:47.219Z,17.04
2023-05-03T16:17:13.908Z,16.58
2023-05-03T16:19:40.628Z,16.90
2023-05-03T16:22:07.241Z,16.95
2023-05-03T16:24:34.861Z,16.89
2023-05-03T16:27:04.196Z,16.96
2023-05-03T16:29:33.490Z,16.77
2023-05-03T16:32:04.124Z,16.47
2023-05-03T16:34:32.616Z,16.28
2023-05-03T16:36:59.261Z,16.40
2023-05-03T16:39:25.936Z,16.42
2023-05-03T16:41:52.765Z,16.35
2023-05-03T16:44:19.430Z,16.44
2023-05-03T16:46:46.737Z,16.50
2023-05-03T16:49:13.315Z,16.67
2023-05-03T16:51:45.938Z,16.75
2023-05-03T16:54:20.399Z,16.41
2023-05-03T16:56:49.893Z,16.09
2023-05-03T16:59:20.249Z,16.22
2023-05-03T17:01:50.900Z,16.07
2023-05-03T17:04:18.018Z,16.19
2023-05-03T17:06:47.209Z,16.16
2023-05-03T17:09:13.948Z,16.65
2023-05-03T17:11:40.608Z,16.25
2023-05-03T17:14:07.202Z,16.38
2023-05-03T17:16:33.793Z,16.13
2023-05-03T17:19:00.997Z,16.25
2023-05-03T17:21:27.597Z,16.52
2023-05-03T17:23:54.183Z,16.42
2023-05-03T17:26:21.296Z,16.09
2023-05-03T17:28:48.566Z,15.92
2023-05-03T17:31:15.173Z,16.05
2023-05-03T17:33:41.828Z,15.90
2023-05-03T17:36:08.583Z,16.13
2023-05-03T17:38:35.970Z,15.89
2023-05-03T17:41:10.372Z,15.89
2023-05-03T17:43:38.214Z,15.50
2023-05-03T17:46:10.534Z,15.43
2023-05-03T17:48:40.269Z,15.55
2023-05-03T17:51:07.927Z,15.26
2023-05-03T17:53:34.742Z,15.33
2023-05-03T17:56:01.536Z,15.27
2023-05-03T17:58:28.285Z,15.14
2023-05-03T18:00:56.865Z,15.19
2023-05-03T18:03:25.876Z,15.19
2023-05-03T18:05:53.017Z,15.08
2023-05-03T18:08:19.562Z,14.99
2023-05-03T18:10:46.226Z,15.04
2023-05-03T18:13:13.217Z,15.17
2023-05-03T18:15:41.851Z,15.12
2023-05-03T18:18:08.920Z,15.02
2023-05-03T18:20:35.782Z,14.91
2023-05-03T18:23:02.673Z,14.96
2023-05-03T18:25:29.487Z,14.92
2023-05-03T18:27:57.189Z,14.82
2023-05-03T18:30:26.167Z,14.74
2023-05-03T18:32:52.915Z,14.55
2023-05-03T18:35:19.775Z,14.66
2023-05-03T18:37:46.347Z,14.59
2023-05-03T18:40:13.159Z,14.48
2023-05-03T18:42:39.770Z,14.51
2023-05-03T18:45:07.112Z,14.42
2023-05-03T18:47:33.825Z,14.17
2023-05-03T18:50:00.728Z,14.27
2023-05-03T18:52:28.900Z,14.16
2023-05-03T18:54:57.231Z,13.95
2023-05-03T18:57:27.797Z,13.90
2023-05-03T19:00:01.107Z,13.87
2023-05-03T19:02:31.153Z,13.80
2023-05-03T19:05:00.948Z,13.68
2023-05-03T19:07:27.933Z,13.63
2023-05-03T19:09:55.803Z,13.50
2023-05-03T19:12:22.747Z,13.51
2023-05-03T19:14:49.683Z,13.34
2023-05-03T19:17:16.739Z,13.40
2023-05-03T19:19:43.337Z,13.30
2023-05-03T19:22:10.176Z,13.33
2023-05-03T19:24:36.813Z,13.18
2023-05-03T19:27:07.209Z,13.16
2023-05-03T19:29:37.886Z,13.16
2023-05-03T19:32:04.823Z,13.14
2023-05-03T19:34:31.450Z,13.09
2023-05-03T19:36:57.954Z,13.05
2023-05-03T19:39:24.796Z,12.96
2023-05-03T19:41:53.038Z,13.00
2023-05-03T19:44:19.712Z,12.96
2023-05-03T19:46:46.361Z,12.99
2023-05-03T19:49:13.057Z,12.81
2023-05-03T19:51:39.613Z,12.84
2023-05-03T19:54:06.256Z,12.84
2023-05-03T19:56:32.982Z,12.85
2023-05-03T19:58:59.571Z,12.75
2023-05-03T20:01:26.185Z,12.74
2023-05-03T20:03:53.912Z,12.61
2023-05-03T20:06:22.180Z,12.70
2023-05-03T20:08:51.122Z,12.64
2023-05-03T20:11:19.700Z,12.53
2023-05-03T20:13:46.810Z,12.51
2023-05-03T20:16:13.509Z,12.41
2023-05-03T20:18:40.340Z,12.47
2023-05-03T20:21:06.989Z,12.39
2023-05-03T20:23:33.563Z,12.31
2023-05-03T20:26:01.750Z,12.29
2023-05-03T20:28:28.881Z,12.27
2023-05-03T20:30:55.501Z,12.21
2023-05-03T20:33:22.206Z,12.32
2023-05-03T20:35:49.316Z,12.32
2023-05-03T20:38:15.973Z,12.23
2023-05-03T20:40:42.597Z,12.25
2023-05-03T20:43:10.166Z,12.20
2023-05-03T20:45:36.750Z,12.15
2023-05-03T20:48:03.538Z,12.15
2023-05-03T20:50:30.562Z,12.11
2023-05-03T20:52:57.192Z,12.03
2023-05-03T20:55:23.885Z,11.97
2023-05-03T20:57:50.532Z,11.92
2023-05-03T21:00:17.596Z,11.83
2023-05-03T21:02:45.005Z,11.78
2023-05-03T21:05:12.532Z,11.74
2023-05-03T21:07:39.169Z,11.70
2023-05-03T21:10:07.538Z,11.56
2023-05-03T21:12:34.793Z,11.55
2023-05-03T21:15:01.969Z,11.53
2023-05-03T21:17:28.601Z,11.52
2023-05-03T21:19:55.740Z,11.53
2023-05-03T21:22:22.722Z,11.41
2023-05-03T21:24:49.565Z,11.39
2023-05-03T21:27:16.291Z,11.33
2023-05-03T21:29:42.881Z,11.25
2023-05-03T21:32:09.578Z,11.24
2023-05-03T21:34:36.181Z,11.12
2023-05-03T21:37:03.769Z,11.13
2023-05-03T21:39:30.577Z,11.04
2023-05-03T21:41:57.167Z,11.04
2023-05-03T21:44:23.760Z,11.06
2023-05-03T21:46:51.116Z,11.07
2023-05-03T21:49:17.715Z,10.96
2023-05-03T21:51:45.193Z,10.93
2023-05-03T21:54:11.828Z,10.89
2023-05-03T21:56:38.624Z,10.81
2023-05-03T21:59:05.758Z,10.74
2023-05-03T22:01:32.404Z,10.74
2023-05-03T22:03:59.838Z,10.56
2023-05-03T22:06:26.799Z,10.48
2023-05-03T22:08:53.624Z,10.43
2023-05-03T22:11:20.976Z,10.38
2023-05-03T22:14:03.094Z,10.35
2023-05-03T22:16:34.249Z,10.28
2023-05-03T22:19:01.006Z,10.20
2023-05-03T22:21:27.560Z,10.07
2023-05-03T22:23:54.185Z,10.00
2023-05-03T22:26:20.825Z,9.96
2023-05-03T22:28:47.504Z,9.85
2023-05-03T22:31:14.166Z,9.67
2023-05-03T22:33:44.660Z,9.53
2023-05-03T22:36:11.704Z,9.57
2023-05-03T22:38:38.810Z,9.49
2023-05-03T22:41:06.930Z,9.42
2023-05-03T22:43:33.626Z,9.36
2023-05-03T22:46:02.359Z,9.41
2023-05-03T22:48:32.070Z,9.44
2023-05-03T22:50:58.509Z,9.53
2023-05-03T22:53:25.324Z,9.55
2023-05-03T22:56:04.423Z,9.52
2023-05-03T22:58:32.255Z,9.41
2023-05-03T23:00:59.093Z,9.37
2023-05-03T23:03:26.980Z,9.38
2023-05-03T23:05:54.616Z,9.40
2023-05-03T23:08:21.383Z,9.49
2023-05-03T23:10:47.944Z,9.39
2023-05-03T23:13:14.595Z,9.27
2023-05-03T23:15:41.539Z,9.22
2023-05-03T23:18:08.507Z,9.15
2023-05-03T23:20:35.229Z,9.17
2023-05-03T23:23:01.868Z,9.19
2023-05-03T23:25:28.643Z,9.13
2023-05-03T23:27:55.271Z,9.14
2023-05-03T23:30:22.530Z,9.17
2023-05-03T23:32:49.787Z,9.20
2023-05-03T23:35:17.066Z,9.26
2023-05-03T23:37:43.682Z,9.29
2023-05-03T23:40:10.667Z,9.16
2023-05-03T23:42:39.598Z,9.24
2023-05-03T23:45:09.963Z,9.27
2023-05-03T23:47:36.952Z,9.18
2023-05-03T23:50:04.633Z,9.06
2023-05-03T23:52:31.298Z,9.12
2023-05-03T23:54:57.882Z,9.07
2023-05-03T23:57:24.379Z,9.01
2023-05-03T23:59:51.033Z,8.97
